createdAt,value
2024-04-14T00:01:46.420Z,99081.08
2024-04-14T00:03:58.527Z,99078.48
2024-04-14T00:06:01.106Z,99074.65
2024-04-14T00:08:03.919Z,99077.83
2024-04-14T00:10:06.626Z,99077.59
2024-04-14T00:12:09.002Z,99073.17
2024-04-14T00:14:11.491Z,99068.84
2024-04-14T00:16:14.105Z,99063.44
2024-04-14T00:18:17.322Z,99058.13
2024-04-14T00:20:20.307Z,99057.17
2024-04-14T00:22:23.214Z,99055.00
2024-04-14T00:24:25.904Z,99052.32
2024-04-14T00:26:29.104Z,99052.59
2024-04-14T00:28:32.299Z,99048.11
2024-04-14T00:30:34.917Z,99045.27
2024-04-14T00:32:37.544Z,99041.61
2024-04-14T00:34:40.033Z,99045.31
2024-04-14T00:36:43.799Z,99041.52
2024-04-14T00:38:46.194Z,99038.48
2024-04-14T00:40:48.704Z,99042.55
2024-04-14T00:42:58.191Z,99035.86
2024-04-14T00:45:00.812Z,99041.20
2024-04-14T00:47:03.847Z,99038.37
2024-04-14T00:49:07.127Z,99036.02
2024-04-14T00:51:10.167Z,99034.04
2024-04-14T00:53:13.509Z,99030.12
2024-04-14T00:55:16.503Z,99032.55
2024-04-14T00:57:19.256Z,99032.59
2024-04-14T00:59:21.787Z,99035.69
2024-04-14T01:01:24.288Z,99037.59
2024-04-14T01:03:27.999Z,99039.61
2024-04-14T01:05:30.521Z,99040.40
2024-04-14T01:07:33.137Z,99040.64
2024-04-14T01:09:35.682Z,99043.84
2024-04-14T01:11:38.356Z,99036.89
2024-04-14T01:13:40.803Z,99036.17
2024-04-14T01:15:43.307Z,99036.35
2024-04-14T01:17:45.865Z,99038.41
2024-04-14T01:19:49.404Z,99042.16
2024-04-14T01:21:53.133Z,99039.15
2024-04-14T01:23:55.622Z,99041.06
2024-04-14T01:25:58.374Z,99037.58
2024-04-14T01:28:01.187Z,99040.23
2024-04-14T01:30:06.458Z,99039.30
2024-04-14T01:32:09.393Z,99035.17
2024-04-14T01:34:13.313Z,99030.52
2024-04-14T01:36:15.747Z,99027.92
2024-04-14T01:38:24.640Z,99024.91
2024-04-14T01:40:28.966Z,99019.48
2024-04-14T01:42:31.606Z,99019.84
2024-04-14T01:44:34.057Z,99012.27
2024-04-14T01:46:36.505Z,99015.43
2024-04-14T01:48:39.080Z,99013.92
2024-04-14T01:50:41.627Z,99015.02
2024-04-14T01:52:44.079Z,99021.39
2024-04-14T01:54:46.469Z,99023.33
2024-04-14T01:56:48.905Z,99022.73
2024-04-14T01:58:51.305Z,99018.45
2024-04-14T02:00:53.989Z,99017.67
2024-04-14T02:02:57.234Z,99019.69
2024-04-14T02:05:00.028Z,99020.38
2024-04-14T02:07:02.582Z,99018.13
2024-04-14T02:09:05.069Z,99013.09
2024-04-14T02:11:07.555Z,99016.06
2024-04-14T02:13:10.218Z,99012.09
2024-04-14T02:15:12.915Z,99010.65
2024-04-14T02:17:15.395Z,99007.31
2024-04-14T02:19:18.392Z,99004.98
2024-04-14T02:21:20.965Z,99002.41
2024-04-14T02:23:24.991Z,99002.07
2024-04-14T02:25:27.428Z,98997.81
2024-04-14T02:27:29.891Z,98998.74
2024-04-14T02:29:32.329Z,99000.95
2024-04-14T02:31:34.743Z,98997.36
2024-04-14T02:33:37.622Z,98998.89
2024-04-14T02:36:01.096Z,98997.85
2024-04-14T02:38:07.320Z,98995.73
2024-04-14T02:40:12.119Z,98994.45
2024-04-14T02:42:14.569Z,98995.92
2024-04-14T02:44:18.138Z,98997.44
2024-04-14T02:46:20.541Z,98996.70
2024-04-14T02:48:23.686Z,98995.13
2024-04-14T02:50:26.215Z,98993.66
2024-04-14T02:52:28.666Z,98991.36
2024-04-14T02:54:31.235Z,98992.64
2024-04-14T02:56:35.406Z,98989.25
2024-04-14T02:58:37.850Z,98994.73
2024-04-14T03:00:40.680Z,98991.14
2024-04-14T03:02:43.242Z,98992.83
2024-04-14T03:04:49.761Z,98994.58
2024-04-14T03:06:54.383Z,98993.61
2024-04-14T03:08:57.434Z,98990.30
2024-04-14T03:11:00.160Z,98989.82
2024-04-14T03:13:03.385Z,98991.46
2024-04-14T03:15:06.141Z,98995.88
2024-04-14T03:17:08.552Z,98996.58
2024-04-14T03:19:11.765Z,98997.98
2024-04-14T03:21:15.358Z,98996.61
2024-04-14T03:23:17.829Z,98995.72
2024-04-14T03:25:21.272Z,98996.41
2024-04-14T03:27:23.872Z,98993.73
2024-04-14T03:29:26.419Z,98995.38
2024-04-14T03:31:29.421Z,98997.17
2024-04-14T03:33:33.014Z,98994.04
2024-04-14T03:35:35.801Z,98990.17
2024-04-14T03:37:40.529Z,98990.44
2024-04-14T03:39:43.441Z,98988.30
2024-04-14T03:41:45.846Z,98989.67
2024-04-14T03:43:50.216Z,98990.11
2024-04-14T03:45:52.799Z,98994.30
2024-04-14T03:47:56.870Z,98989.95
2024-04-14T03:49:59.574Z,98987.27
2024-04-14T03:52:02.134Z,98986.67
2024-04-14T03:54:04.729Z,98984.84
2024-04-14T03:56:07.515Z,98987.15
2024-04-14T03:58:10.020Z,98984.48
2024-04-14T04:00:13.349Z,98983.11
2024-04-14T04:02:18.855Z,98982.74
2024-04-14T04:04:21.559Z,98982.39
2024-04-14T04:06:24.473Z,98982.24
2024-04-14T04:08:26.978Z,98985.40
2024-04-14T04:10:29.522Z,98983.26
2024-04-14T04:12:31.918Z,98986.20
2024-04-14T04:14:34.453Z,98991.44
2024-04-14T04:16:37.050Z,98991.14
2024-04-14T04:18:39.663Z,98989.85
2024-04-14T04:20:42.849Z,98989.67
2024-04-14T04:22:45.676Z,98988.25
2024-04-14T04:24:48.456Z,98993.85
2024-04-14T04:26:50.873Z,98990.98
2024-04-14T04:28:53.457Z,98989.44
2024-04-14T04:30:58.175Z,98993.02
2024-04-14T04:33:04.142Z,98998.59
2024-04-14T04:35:06.840Z,98997.45
2024-04-14T04:37:09.312Z,98999.52
2024-04-14T04:39:11.975Z,99003.27
2024-04-14T04:41:15.159Z,99005.34
2024-04-14T04:43:17.702Z,99008.30
2024-04-14T04:45:20.180Z,99006.82
2024-04-14T04:47:22.782Z,99005.12
2024-04-14T04:49:25.319Z,99005.38
2024-04-14T04:51:31.358Z,99009.52
2024-04-14T04:53:33.884Z,99012.66
2024-04-14T04:55:36.505Z,99017.39
2024-04-14T04:57:39.076Z,99024.94
2024-04-14T04:59:41.666Z,99025.14
2024-04-14T05:01:45.519Z,99025.66
2024-04-14T05:03:48.176Z,99026.95
2024-04-14T05:06:03.580Z,99025.77
2024-04-14T05:08:06.972Z,99029.92
2024-04-14T05:10:09.435Z,99029.08
2024-04-14T05:12:14.691Z,99032.50
2024-04-14T05:14:17.639Z,99035.95
2024-04-14T05:16:21.247Z,99038.59
2024-04-14T05:18:30.688Z,99041.67
2024-04-14T05:20:39.319Z,99038.46
2024-04-14T05:22:42.692Z,99039.14
2024-04-14T05:24:45.310Z,99039.23
2024-04-14T05:26:47.801Z,99038.77
2024-04-14T05:28:50.628Z,99038.25
2024-04-14T05:30:53.158Z,99042.06
2024-04-14T05:32:58.299Z,99044.30
2024-04-14T05:35:00.801Z,99044.77
2024-04-14T05:37:03.822Z,99043.80
2024-04-14T05:39:06.552Z,99046.98
2024-04-14T05:41:09.126Z,99049.05
2024-04-14T05:43:11.918Z,99046.15
2024-04-14T05:45:23.776Z,99053.98
2024-04-14T05:47:27.444Z,99053.77
2024-04-14T05:49:30.022Z,99053.61
2024-04-14T05:51:32.769Z,99057.52
2024-04-14T05:53:35.244Z,99059.79
2024-04-14T05:55:39.072Z,99059.42
2024-04-14T05:57:42.513Z,99059.06
2024-04-14T05:59:45.968Z,99055.86
2024-04-14T06:01:49.280Z,99063.91
2024-04-14T06:03:52.028Z,99064.02
2024-04-14T06:05:54.563Z,99065.95
2024-04-14T06:07:57.012Z,99065.77
2024-04-14T06:10:00.526Z,99069.14
2024-04-14T06:12:03.201Z,99068.09
2024-04-14T06:14:05.733Z,99062.38
2024-04-14T06:16:08.701Z,99063.37
2024-04-14T06:18:12.662Z,99063.04
2024-04-14T06:20:15.703Z,99060.45
2024-04-14T06:22:18.294Z,99060.65
2024-04-14T06:24:21.276Z,99061.36
2024-04-14T06:26:24.045Z,99063.80
2024-04-14T06:28:26.532Z,99064.90
2024-04-14T06:30:29.189Z,99070.92
2024-04-14T06:32:31.731Z,99072.36
2024-04-14T06:34:34.320Z,99071.17
2024-04-14T06:36:36.912Z,99068.61
2024-04-14T06:38:40.787Z,99067.39
2024-04-14T06:40:43.174Z,99075.16
2024-04-14T06:42:45.715Z,99074.51
2024-04-14T06:44:48.437Z,99068.64
2024-04-14T06:46:51.393Z,99064.39
2024-04-14T06:48:53.872Z,99062.08
2024-04-14T06:50:56.695Z,99061.40
2024-04-14T06:53:00.236Z,99060.88
2024-04-14T06:55:03.473Z,99059.30
2024-04-14T06:57:06.003Z,99058.80
2024-04-14T06:59:08.752Z,99059.04
2024-04-14T07:01:11.398Z,99060.44
2024-04-14T07:03:15.335Z,99064.56
2024-04-14T07:05:18.257Z,99061.23
2024-04-14T07:07:20.838Z,99059.65
2024-04-14T07:09:23.442Z,99064.54
2024-04-14T07:11:26.515Z,99065.38
2024-04-14T07:13:28.970Z,99064.58
2024-04-14T07:15:31.611Z,99060.39
2024-04-14T07:17:34.262Z,99064.70
2024-04-14T07:19:37.613Z,99065.21
2024-04-14T07:21:42.950Z,99061.02
2024-04-14T07:23:45.502Z,99063.50
2024-04-14T07:25:47.937Z,99059.55
2024-04-14T07:27:50.509Z,99063.46
2024-04-14T07:29:53.212Z,99067.94
2024-04-14T07:31:55.787Z,99068.95
2024-04-14T07:34:04.840Z,99067.49
2024-04-14T07:36:08.047Z,99071.56
2024-04-14T07:38:10.891Z,99065.18
2024-04-14T07:40:13.937Z,99063.35
2024-04-14T07:42:17.016Z,99068.69
2024-04-14T07:44:19.501Z,99065.29
2024-04-14T07:46:23.590Z,99064.73
2024-04-14T07:48:26.417Z,99066.95
2024-04-14T07:50:28.949Z,99067.91
2024-04-14T07:52:32.465Z,99065.02
2024-04-14T07:54:38.397Z,99066.55
2024-04-14T07:56:42.160Z,99066.54
2024-04-14T07:58:45.314Z,99073.84
2024-04-14T08:00:47.984Z,99074.33
2024-04-14T08:02:51.856Z,99073.62
2024-04-14T08:04:57.612Z,99076.43
2024-04-14T08:07:02.092Z,99079.06
2024-04-14T08:09:04.622Z,99082.01
2024-04-14T08:11:09.237Z,99078.98
2024-04-14T08:13:12.843Z,99078.84
2024-04-14T08:15:15.667Z,99073.64
2024-04-14T08:17:18.179Z,99073.38
2024-04-14T08:19:21.422Z,99071.00
2024-04-14T08:21:24.068Z,99064.45
2024-04-14T08:23:27.498Z,99065.04
2024-04-14T08:25:29.954Z,99067.78
2024-04-14T08:27:32.517Z,99068.48
2024-04-14T08:29:35.089Z,99065.95
2024-04-14T08:31:37.508Z,99067.40
2024-04-14T08:33:40.314Z,99070.95
2024-04-14T08:35:42.800Z,99068.11
2024-04-14T08:37:45.453Z,99063.88
2024-04-14T08:39:48.186Z,99064.04
2024-04-14T08:41:51.545Z,99062.78
2024-04-14T08:43:55.297Z,99064.73
2024-04-14T08:45:59.209Z,99065.39
2024-04-14T08:48:03.710Z,99067.76
2024-04-14T08:50:09.747Z,99067.52
2024-04-14T08:52:12.451Z,99068.25
2024-04-14T08:54:15.105Z,99066.25
2024-04-14T08:56:18.799Z,99067.98
2024-04-14T08:58:22.571Z,99066.61
2024-04-14T09:00:27.637Z,99073.16
2024-04-14T09:02:31.433Z,99066.13
2024-04-14T09:04:33.995Z,99073.12
2024-04-14T09:06:39.978Z,99073.87
2024-04-14T09:08:42.431Z,99071.41
2024-04-14T09:10:45.046Z,99073.99
2024-04-14T09:12:48.782Z,99073.16
2024-04-14T09:14:51.468Z,99071.10
2024-04-14T09:16:57.242Z,99069.36
2024-04-14T09:18:59.810Z,99070.09
2024-04-14T09:21:03.129Z,99073.61
2024-04-14T09:23:05.669Z,99072.57
2024-04-14T09:25:14.840Z,99071.05
2024-04-14T09:27:18.473Z,99069.36
2024-04-14T09:29:21.025Z,99068.05
2024-04-14T09:31:25.376Z,99072.00
2024-04-14T09:33:28.250Z,99070.70
2024-04-14T09:35:31.546Z,99066.20
2024-04-14T09:37:35.528Z,99066.23
2024-04-14T09:39:39.378Z,99067.86
2024-04-14T09:41:42.315Z,99067.44
2024-04-14T09:43:45.657Z,99069.30
2024-04-14T09:45:50.350Z,99071.86
2024-04-14T09:47:56.745Z,99065.63
2024-04-14T09:49:59.807Z,99060.20
2024-04-14T09:52:03.759Z,99063.36
2024-04-14T09:54:06.760Z,99066.34
2024-04-14T09:56:09.343Z,99061.46
2024-04-14T09:58:11.829Z,99061.86
2024-04-14T10:00:14.446Z,99063.77
2024-04-14T10:02:41.054Z,99061.73
2024-04-14T10:04:54.439Z,99062.63
2024-04-14T10:06:57.010Z,99063.34
2024-04-14T10:08:59.793Z,99064.33
2024-04-14T10:11:02.717Z,99062.73
2024-04-14T10:13:09.792Z,99060.34
2024-04-14T10:15:15.318Z,99059.16
2024-04-14T10:17:19.014Z,99056.61
2024-04-14T10:19:22.603Z,99055.80
2024-04-14T10:21:25.150Z,99057.15
2024-04-14T10:23:28.760Z,99053.64
2024-04-14T10:25:32.959Z,99053.39
2024-04-14T10:27:35.754Z,99051.35
2024-04-14T10:29:40.123Z,99048.78
2024-04-14T10:31:43.528Z,99046.21
2024-04-14T10:33:46.601Z,99046.61
2024-04-14T10:36:06.495Z,99041.74
2024-04-14T10:38:09.112Z,99035.36
2024-04-14T10:40:13.482Z,99031.55
2024-04-14T10:42:16.563Z,99031.17
2024-04-14T10:44:20.221Z,99028.41
2024-04-14T10:46:23.188Z,99023.16
2024-04-14T10:48:27.075Z,99022.77
2024-04-14T10:50:29.593Z,99021.01
2024-04-14T10:52:32.131Z,99022.85
2024-04-14T10:54:36.660Z,99023.36
2024-04-14T10:56:39.506Z,99018.60
2024-04-14T10:58:41.940Z,99018.30
2024-04-14T11:00:45.858Z,99013.98
2024-04-14T11:02:49.176Z,99013.00
2024-04-14T11:04:52.810Z,99009.58
2024-04-14T11:06:56.391Z,99013.86
2024-04-14T11:09:00.814Z,99003.02
2024-04-14T11:11:04.742Z,99000.33
2024-04-14T11:13:08.650Z,98997.33
2024-04-14T11:15:12.203Z,98998.30
2024-04-14T11:17:15.497Z,98995.77
2024-04-14T11:19:18.359Z,98989.23
2024-04-14T11:21:21.131Z,98991.16
2024-04-14T11:23:23.853Z,98990.94
2024-04-14T11:25:26.385Z,98992.11
2024-04-14T11:27:30.675Z,98985.45
2024-04-14T11:29:34.816Z,98987.77
2024-04-14T11:31:38.049Z,98983.60
2024-04-14T11:33:42.754Z,98980.20
2024-04-14T11:35:45.394Z,98980.48
2024-04-14T11:37:50.551Z,98978.24
2024-04-14T11:39:53.212Z,98973.23
2024-04-14T11:41:55.885Z,98974.93
2024-04-14T11:43:59.699Z,98974.83
2024-04-14T11:46:02.403Z,98977.39
2024-04-14T11:48:05.511Z,98976.96
2024-04-14T11:50:11.704Z,98976.83
2024-04-14T11:52:15.153Z,98977.97
2024-04-14T11:54:17.523Z,98978.04
2024-04-14T11:56:21.491Z,98968.58
2024-04-14T11:58:26.885Z,98963.02
2024-04-14T12:00:30.107Z,98964.26
2024-04-14T12:02:32.636Z,98963.33
2024-04-14T12:04:35.224Z,98960.96
2024-04-14T12:06:38.071Z,98960.86
2024-04-14T12:08:40.837Z,98959.45
2024-04-14T12:10:43.604Z,98962.33
2024-04-14T12:12:46.183Z,98956.64
2024-04-14T12:14:48.745Z,98959.88
2024-04-14T12:16:51.332Z,98953.92
2024-04-14T12:18:54.000Z,98948.48
2024-04-14T12:20:57.863Z,98948.84
2024-04-14T12:23:00.548Z,98951.39
2024-04-14T12:25:03.338Z,98946.40
2024-04-14T12:27:05.856Z,98948.46
2024-04-14T12:29:08.259Z,98949.37
2024-04-14T12:31:10.667Z,98946.39
2024-04-14T12:33:13.286Z,98944.79
2024-04-14T12:35:15.882Z,98938.61
2024-04-14T12:37:18.410Z,98934.90
2024-04-14T12:39:27.434Z,98936.48
2024-04-14T12:41:32.911Z,98940.35
2024-04-14T12:43:35.427Z,98934.61
2024-04-14T12:45:43.042Z,98930.50
2024-04-14T12:47:46.063Z,98928.30
2024-04-14T12:49:51.788Z,98931.14
2024-04-14T12:51:57.243Z,98927.95
2024-04-14T12:53:59.948Z,98927.38
2024-04-14T12:56:03.037Z,98930.07
2024-04-14T12:58:05.767Z,98933.36
2024-04-14T13:00:11.425Z,98931.26
2024-04-14T13:02:14.805Z,98932.53
2024-04-14T13:04:18.747Z,98925.59
2024-04-14T13:06:23.190Z,98928.66
2024-04-14T13:08:25.776Z,98925.70
2024-04-14T13:10:28.898Z,98921.83
2024-04-14T13:12:31.322Z,98921.69
2024-04-14T13:14:36.430Z,98920.30
2024-04-14T13:16:38.986Z,98915.09
2024-04-14T13:18:42.478Z,98907.64
2024-04-14T13:20:44.964Z,98906.79
2024-04-14T13:22:47.577Z,98904.44
2024-04-14T13:24:50.221Z,98907.00
2024-04-14T13:26:52.974Z,98907.81
2024-04-14T13:28:57.490Z,98906.63
2024-04-14T13:31:00.614Z,98904.48
2024-04-14T13:33:03.595Z,98895.91
2024-04-14T13:35:06.886Z,98895.70
2024-04-14T13:37:09.678Z,98892.27
2024-04-14T13:39:12.230Z,98891.99
2024-04-14T13:41:16.985Z,98889.83
2024-04-14T13:43:19.499Z,98889.23
2024-04-14T13:45:22.187Z,98887.02
2024-04-14T13:47:24.619Z,98888.17
2024-04-14T13:49:27.358Z,98884.42
2024-04-14T13:51:30.231Z,98885.73
2024-04-14T13:53:34.385Z,98881.70
2024-04-14T13:55:36.915Z,98881.43
2024-04-14T13:57:39.381Z,98877.05
2024-04-14T13:59:42.044Z,98875.09
2024-04-14T14:01:45.330Z,98871.73
2024-04-14T14:03:48.196Z,98875.66
2024-04-14T14:05:50.767Z,98877.21
2024-04-14T14:07:55.152Z,98874.08
2024-04-14T14:09:58.179Z,98874.35
2024-04-14T14:12:00.564Z,98877.15
2024-04-14T14:14:04.872Z,98873.71
2024-04-14T14:16:08.160Z,98875.02
2024-04-14T14:18:10.816Z,98875.17
2024-04-14T14:20:13.212Z,98869.99
2024-04-14T14:22:15.775Z,98868.24
2024-04-14T14:24:18.177Z,98868.40
2024-04-14T14:26:21.969Z,98866.84
2024-04-14T14:28:24.407Z,98863.64
2024-04-14T14:30:28.423Z,98868.88
2024-04-14T14:32:32.978Z,98862.59
2024-04-14T14:34:53.978Z,98860.47
2024-04-14T14:36:56.739Z,98859.87
2024-04-14T14:39:00.432Z,98859.77
2024-04-14T14:41:03.159Z,98861.67
2024-04-14T14:43:05.735Z,98864.05
2024-04-14T14:45:08.435Z,98859.06
2024-04-14T14:47:10.804Z,98857.42
2024-04-14T14:49:13.386Z,98853.95
2024-04-14T14:51:16.634Z,98854.58
2024-04-14T14:53:19.206Z,98857.64
2024-04-14T14:55:21.582Z,98855.92
2024-04-14T14:57:23.995Z,98852.11
2024-04-14T14:59:26.660Z,98850.41
2024-04-14T15:01:31.368Z,98849.67
2024-04-14T15:03:35.343Z,98851.15
2024-04-14T15:05:38.474Z,98853.34
2024-04-14T15:07:41.020Z,98857.16
2024-04-14T15:09:43.732Z,98852.98
2024-04-14T15:11:46.341Z,98849.03
2024-04-14T15:13:55.722Z,98846.17
2024-04-14T15:15:59.586Z,98845.64
2024-04-14T15:18:02.405Z,98841.52
2024-04-14T15:20:06.012Z,98840.48
2024-04-14T15:22:08.640Z,98836.11
2024-04-14T15:24:11.352Z,98834.09
2024-04-14T15:26:13.922Z,98832.48
2024-04-14T15:28:24.930Z,98827.69
2024-04-14T15:30:32.104Z,98829.89
2024-04-14T15:32:37.964Z,98830.80
2024-04-14T15:34:40.928Z,98832.04
2024-04-14T15:36:43.513Z,98834.72
2024-04-14T15:38:45.941Z,98836.45
2024-04-14T15:40:50.360Z,98839.87
2024-04-14T15:42:52.935Z,98835.42
2024-04-14T15:44:55.300Z,98832.49
2024-04-14T15:46:57.985Z,98827.56
2024-04-14T15:49:01.318Z,98822.97
2024-04-14T15:51:13.771Z,98816.78
2024-04-14T15:53:22.056Z,98811.81
2024-04-14T15:55:26.804Z,98810.86
2024-04-14T15:57:35.736Z,98811.61
2024-04-14T15:59:39.427Z,98810.60
2024-04-14T16:01:44.013Z,98807.79
2024-04-14T16:03:47.449Z,98806.05
2024-04-14T16:05:57.066Z,98801.27
2024-04-14T16:07:59.485Z,98797.11
2024-04-14T16:10:02.656Z,98800.27
2024-04-14T16:12:06.078Z,98800.71
2024-04-14T16:14:08.986Z,98794.98
2024-04-14T16:16:13.239Z,98791.48
2024-04-14T16:18:18.676Z,98787.72
2024-04-14T16:20:21.547Z,98785.95
2024-04-14T16:22:23.990Z,98781.20
2024-04-14T16:24:26.484Z,98780.43
2024-04-14T16:26:28.820Z,98778.60
2024-04-14T16:28:31.187Z,98776.79
2024-04-14T16:30:37.066Z,98772.99
2024-04-14T16:32:39.625Z,98771.91
2024-04-14T16:34:42.275Z,98765.89
2024-04-14T16:36:46.961Z,98770.73
2024-04-14T16:38:49.783Z,98779.52
2024-04-14T16:40:52.261Z,98778.53
2024-04-14T16:42:54.913Z,98775.35
2024-04-14T16:44:57.458Z,98768.27
2024-04-14T16:47:00.250Z,98760.98
2024-04-14T16:49:03.836Z,98764.70
2024-04-14T16:51:06.926Z,98758.71
2024-04-14T16:53:10.096Z,98755.48
2024-04-14T16:55:12.614Z,98754.77
2024-04-14T16:57:15.003Z,98747.89
2024-04-14T16:59:17.390Z,98749.58
2024-04-14T17:01:19.831Z,98742.77
2024-04-14T17:03:22.517Z,98741.80
2024-04-14T17:05:25.428Z,98740.77
2024-04-14T17:07:27.807Z,98743.15
2024-04-14T17:09:30.166Z,98741.89
2024-04-14T17:11:32.548Z,98741.02
2024-04-14T17:13:34.928Z,98739.58
2024-04-14T17:15:37.659Z,98738.28
2024-04-14T17:17:41.138Z,98735.98
2024-04-14T17:19:43.722Z,98732.20
2024-04-14T17:21:46.088Z,98726.80
2024-04-14T17:23:48.528Z,98726.54
2024-04-14T17:25:50.968Z,98727.23
2024-04-14T17:27:53.552Z,98725.34
2024-04-14T17:29:56.162Z,98725.94
2024-04-14T17:31:58.645Z,98723.76
2024-04-14T17:34:01.168Z,98725.73
2024-04-14T17:36:04.149Z,98720.23
2024-04-14T17:38:06.704Z,98718.16
2024-04-14T17:40:10.102Z,98715.10
2024-04-14T17:42:12.767Z,98712.80
2024-04-14T17:44:15.202Z,98713.71
2024-04-14T17:46:17.689Z,98712.45
2024-04-14T17:48:20.224Z,98714.08
2024-04-14T17:50:23.362Z,98711.77
2024-04-14T17:52:25.898Z,98710.23
2024-04-14T17:54:29.068Z,98708.73
2024-04-14T17:56:31.444Z,98712.89
2024-04-14T17:58:33.868Z,98712.86
2024-04-14T18:00:37.577Z,98713.60
2024-04-14T18:02:40.876Z,98713.89
2024-04-14T18:04:44.145Z,98714.84
2024-04-14T18:06:46.788Z,98715.15
2024-04-14T18:08:49.979Z,98714.21
2024-04-14T18:10:52.360Z,98711.48
2024-04-14T18:12:54.866Z,98714.26
2024-04-14T18:14:58.149Z,98711.20
2024-04-14T18:17:00.910Z,98711.04
2024-04-14T18:19:03.782Z,98710.63
2024-04-14T18:21:07.053Z,98716.90
2024-04-14T18:23:09.634Z,98724.50
2024-04-14T18:25:13.083Z,98721.52
2024-04-14T18:27:17.561Z,98715.96
2024-04-14T18:29:20.021Z,98718.85
2024-04-14T18:31:23.255Z,98719.05
2024-04-14T18:33:26.151Z,98722.64
2024-04-14T18:35:28.674Z,98726.20
2024-04-14T18:37:31.729Z,98723.84
2024-04-14T18:39:35.079Z,98723.92
2024-04-14T18:41:39.156Z,98727.91
2024-04-14T18:43:41.725Z,98730.61
2024-04-14T18:45:58.726Z,98729.64
2024-04-14T18:48:03.700Z,98723.70
2024-04-14T18:50:16.313Z,98717.40
2024-04-14T18:52:18.895Z,98717.50
2024-04-14T18:54:23.785Z,98719.12
2024-04-14T18:56:33.232Z,98718.56
2024-04-14T18:58:38.051Z,98723.48
2024-04-14T19:00:41.320Z,98719.17
2024-04-14T19:02:44.913Z,98716.13
2024-04-14T19:04:49.868Z,98717.03
2024-04-14T19:06:53.552Z,98715.08
2024-04-14T19:08:57.689Z,98712.52
2024-04-14T19:11:03.706Z,98712.80
2024-04-14T19:13:08.654Z,98713.68
2024-04-14T19:15:12.984Z,98717.44
2024-04-14T19:17:18.357Z,98717.15
2024-04-14T19:19:20.860Z,98716.48
2024-04-14T19:21:24.142Z,98715.91
2024-04-14T19:23:27.495Z,98715.38
2024-04-14T19:25:31.738Z,98714.61
2024-04-14T19:27:35.870Z,98715.14
2024-04-14T19:29:39.690Z,98709.55
2024-04-14T19:31:44.575Z,98711.29
2024-04-14T19:33:50.291Z,98710.96
2024-04-14T19:35:57.702Z,98707.55
2024-04-14T19:38:01.351Z,98706.62
2024-04-14T19:40:06.716Z,98703.73
2024-04-14T19:42:11.358Z,98702.61
2024-04-14T19:44:18.353Z,98701.96
2024-04-14T19:46:24.779Z,98698.35
2024-04-14T19:48:32.753Z,98698.61
2024-04-14T19:50:38.241Z,98696.92
2024-04-14T19:52:40.616Z,98693.05
2024-04-14T19:54:53.891Z,98691.79
2024-04-14T19:56:59.140Z,98687.41
2024-04-14T19:59:01.837Z,98685.61
2024-04-14T20:01:08.999Z,98682.66
2024-04-14T20:03:12.105Z,98683.52
2024-04-14T20:05:19.854Z,98682.73
2024-04-14T20:07:23.453Z,98685.77
2024-04-14T20:09:29.556Z,98678.58
2024-04-14T20:11:34.742Z,98675.52
2024-04-14T20:13:39.523Z,98671.66
2024-04-14T20:15:43.248Z,98664.15
2024-04-14T20:17:47.475Z,98660.67
2024-04-14T20:19:51.199Z,98658.86
2024-04-14T20:21:55.067Z,98653.88
2024-04-14T20:23:59.581Z,98646.09
2024-04-14T20:26:03.173Z,98639.16
2024-04-14T20:28:06.590Z,98634.23
2024-04-14T20:30:10.270Z,98631.70
2024-04-14T20:32:12.973Z,98631.77
2024-04-14T20:34:30.513Z,98635.92
2024-04-14T20:36:33.024Z,98635.24
2024-04-14T20:38:39.057Z,98629.91
2024-04-14T20:40:42.892Z,98621.58
2024-04-14T20:42:45.783Z,98620.45
2024-04-14T20:44:48.728Z,98615.11
2024-04-14T20:46:51.117Z,98610.11
2024-04-14T20:48:54.320Z,98610.48
2024-04-14T20:50:57.324Z,98607.91
2024-04-14T20:52:59.886Z,98605.68
2024-04-14T20:55:02.563Z,98604.66
2024-04-14T20:57:05.330Z,98606.58
2024-04-14T20:59:08.583Z,98603.86
2024-04-14T21:01:11.137Z,98595.40
2024-04-14T21:03:14.805Z,98592.60
2024-04-14T21:05:17.634Z,98589.08
2024-04-14T21:07:20.956Z,98587.73
2024-04-14T21:09:24.638Z,98585.39
2024-04-14T21:11:27.194Z,98579.80
2024-04-14T21:13:29.686Z,98578.02
2024-04-14T21:15:32.764Z,98571.26
2024-04-14T21:17:35.323Z,98561.64
2024-04-14T21:19:38.037Z,98559.21
2024-04-14T21:21:42.618Z,98559.42
2024-04-14T21:23:45.118Z,98555.51
2024-04-14T21:25:47.660Z,98548.83
2024-04-14T21:27:50.442Z,98551.81
2024-04-14T21:29:52.938Z,98554.95
2024-04-14T21:32:03.097Z,98549.58
2024-04-14T21:34:05.557Z,98551.19
2024-04-14T21:36:12.289Z,98546.91
2024-04-14T21:38:15.931Z,98543.48
2024-04-14T21:40:18.342Z,98534.08
2024-04-14T21:42:20.755Z,98533.35
2024-04-14T21:44:23.256Z,98534.61
2024-04-14T21:46:25.650Z,98530.99
2024-04-14T21:48:29.412Z,98535.52
2024-04-14T21:50:32.009Z,98533.38
2024-04-14T21:52:34.478Z,98529.09
2024-04-14T21:54:37.214Z,98525.17
2024-04-14T21:56:39.649Z,98519.95
2024-04-14T21:58:42.236Z,98517.50
2024-04-14T22:00:44.797Z,98515.39
2024-04-14T22:02:47.497Z,98508.38
2024-04-14T22:04:50.271Z,98504.75
2024-04-14T22:06:52.783Z,98505.29
2024-04-14T22:08:55.158Z,98500.27
2024-04-14T22:10:59.949Z,98494.17
2024-04-14T22:13:03.303Z,98492.77
2024-04-14T22:15:06.475Z,98492.58
2024-04-14T22:17:10.951Z,98489.29
2024-04-14T22:19:15.811Z,98486.20
2024-04-14T22:21:18.814Z,98486.61
2024-04-14T22:23:21.247Z,98480.58
2024-04-14T22:25:23.789Z,98476.86
2024-04-14T22:27:26.183Z,98471.48
2024-04-14T22:29:28.592Z,98472.45
2024-04-14T22:31:31.010Z,98469.56
2024-04-14T22:33:33.612Z,98474.02
2024-04-14T22:35:36.761Z,98472.17
2024-04-14T22:37:39.178Z,98471.66
2024-04-14T22:39:41.627Z,98474.15
2024-04-14T22:41:43.988Z,98467.58
2024-04-14T22:43:46.439Z,98462.52
2024-04-14T22:45:48.853Z,98462.63
2024-04-14T22:47:51.800Z,98456.65
2024-04-14T22:49:54.236Z,98457.02
2024-04-14T22:51:56.895Z,98447.38
2024-04-14T22:54:00.103Z,98442.92
2024-04-14T22:56:03.125Z,98439.77
2024-04-14T22:58:06.343Z,98440.30
2024-04-14T23:00:10.715Z,98435.27
2024-04-14T23:02:13.172Z,98433.15
2024-04-14T23:04:15.721Z,98428.98
2024-04-14T23:06:18.230Z,98428.46
2024-04-14T23:08:20.631Z,98424.37
2024-04-14T23:10:23.467Z,98423.40
2024-04-14T23:12:26.045Z,98424.89
2024-04-14T23:14:28.538Z,98424.59
2024-04-14T23:16:31.063Z,98422.79
2024-04-14T23:18:33.712Z,98419.92
2024-04-14T23:20:36.180Z,98417.19
2024-04-14T23:22:38.696Z,98415.58
2024-04-14T23:24:41.073Z,98414.33
2024-04-14T23:26:43.717Z,98415.71
2024-04-14T23:28:46.301Z,98422.34
2024-04-14T23:30:48.770Z,98415.38
2024-04-14T23:32:51.287Z,98418.88
2024-04-14T23:34:53.660Z,98418.81
2024-04-14T23:36:56.819Z,98420.10
2024-04-14T23:39:02.327Z,98419.61
2024-04-14T23:41:05.252Z,98415.11
2024-04-14T23:43:08.227Z,98415.20
2024-04-14T23:45:11.166Z,98417.53
2024-04-14T23:47:13.738Z,98413.25
2024-04-14T23:49:16.154Z,98411.83
2024-04-14T23:51:18.589Z,98414.33
2024-04-14T23:53:22.531Z,98405.42
2024-04-14T23:55:25.612Z,98401.45
2024-04-14T23:57:28.070Z,98402.44
2024-04-14T23:59:30.491Z,98397.13
